Time;durP1;ratioP1;P1;durP2;ratioP2;P2;SDS_P1;SDS_P2;PMS_P1;PMS_P2;Temp;Humidity;BMP_temperature;BMP_pressure;BME280_temperature;BME280_humidity;BME280_pressure;Samples;Min_cycle;Max_cycle;Signal;HPM_P1;HPM_P2
2023/02/25 00:00:48;;;;;;;;;14.00;12.00;;;;;9.85;100.00;100837.69;5038236;28;45358;-73
2023/02/25 00:03:14;;;;;;;;;13.50;11.25;;;;;9.85;100.00;100835.06;5040492;28;45981;-74
2023/02/25 00:05:40;;;;;;;;;12.00;8.00;;;;;9.90;100.00;100846.56;5043599;28;45172;-73
2023/02/25 00:08:06;;;;;;;;;11.50;8.00;;;;;9.90;100.00;100839.53;5040044;28;45471;-74
2023/02/25 00:10:32;;;;;;;;;15.00;11.75;;;;;9.91;100.00;100840.44;5035379;28;45463;-73
2023/02/25 00:12:57;;;;;;;;;13.00;7.25;;;;;9.94;100.00;100848.38;5020958;28;46049;-74
2023/02/25 00:15:23;;;;;;;;;14.50;8.75;;;;;9.95;100.00;100845.75;5017290;28;45467;-74
2023/02/25 00:17:49;;;;;;;;;9.00;7.75;;;;;9.98;100.00;100851.09;5036081;28;45341;-73
2023/02/25 00:20:17;;;;;;;;;9.25;6.75;;;;;10.00;100.00;100852.84;5018849;28;45314;-74
2023/02/25 00:22:42;;;;;;;;;10.25;7.75;;;;;9.97;100.00;100846.69;5016249;28;46584;-73
2023/02/25 00:25:08;;;;;;;;;5.50;5.50;;;;;9.97;100.00;100846.69;5036434;28;45412;-73
2023/02/25 00:27:34;;;;;;;;;10.75;9.00;;;;;9.98;100.00;100848.44;5036907;28;45536;-74
2023/02/25 00:29:59;;;;;;;;;9.50;8.00;;;;;9.96;100.00;100850.19;5019530;28;45421;-74
2023/02/25 00:32:25;;;;;;;;;11.75;8.00;;;;;9.98;100.00;100850.19;5034840;28;46635;-73
2023/02/25 00:34:50;;;;;;;;;6.00;6.00;;;;;9.97;100.00;100856.34;5024719;28;45503;-75
2023/02/25 00:37:16;;;;;;;;;9.25;8.25;;;;;9.95;100.00;100848.41;5004459;28;45481;-75
2023/02/25 00:39:41;;;;;;;;;8.50;6.75;;;;;9.92;100.00;100855.41;5020698;28;45506;-74
2023/02/25 00:42:11;;;;;;;;;10.50;7.00;;;;;9.91;100.00;100856.28;5025248;28;53126;-75
2023/02/25 00:44:37;;;;;;;;;5.25;5.00;;;;;9.92;100.00;100858.91;5024285;28;45572;-73
2023/02/25 00:47:03;;;;;;;;;9.50;6.00;;;;;9.93;100.00;100852.78;5030237;28;45438;-74
2023/02/25 00:49:29;;;;;;;;;11.75;7.75;;;;;9.84;100.00;100835.94;4997610;28;45599;-75
2023/02/25 00:51:55;;;;;;;;;11.75;7.75;;;;;9.89;100.00;100845.69;5012789;28;46334;-73
2023/02/25 00:54:20;;;;;;;;;4.25;4.25;;;;;9.90;100.00;100849.19;5017933;28;45484;-75
2023/02/25 00:56:46;;;;;;;;;9.00;4.00;;;;;9.95;100.00;100858.94;5017345;28;45445;-75
2023/02/25 00:59:11;;;;;;;;;7.50;7.50;;;;;9.97;100.00;100854.59;5035195;28;45539;-73
2023/02/25 01:01:37;;;;;;;;;9.00;8.50;;;;;10.00;100.00;100858.13;5019277;28;57214;-74
2023/02/25 01:04:02;;;;;;;;;8.75;6.00;;;;;10.02;100.00;100857.31;5032385;28;45429;-74
2023/02/25 01:06:29;;;;;;;;;13.75;6.25;;;;;10.03;100.00;100847.63;5034706;28;46050;-74
2023/02/25 01:08:54;;;;;;;;;9.25;6.50;;;;;10.06;100.00;100858.22;5017740;28;45611;-74
2023/02/25 01:11:26;;;;;;;;;7.25;5.00;;;;;10.07;100.00;100860.00;5036069;28;45626;-73
2023/02/25 01:13:52;;;;;;;;;7.00;7.00;;;;;10.07;100.00;100852.97;5013374;28;45536;-76
2023/02/25 01:16:20;;;;;;;;;9.00;7.00;;;;;10.07;100.00;100854.72;5035331;28;45518;-74
2023/02/25 01:18:46;;;;;;;;;9.50;6.75;;;;;10.06;100.00;100851.19;5035051;28;45390;-73
2023/02/25 01:21:38;;;;;;;;;4.50;4.00;;;;;10.06;100.00;100859.09;5036824;28;45669;-74
2023/02/25 01:24:07;;;;;;;;;14.50;8.00;;;;;10.05;100.00;100859.97;5029289;28;45465;-75
2023/02/25 01:26:35;;;;;;;;;9.00;7.75;;;;;10.03;100.00;100859.06;5037007;28;45508;-74
2023/02/25 01:29:00;;;;;;;;;9.50;8.25;;;;;10.02;100.00;100852.03;5041427;28;45348;-76
2023/02/25 01:31:30;;;;;;;;;7.25;5.50;;;;;10.06;100.00;100868.75;5018847;28;46668;-74
2023/02/25 01:34:00;;;;;;;;;4.25;4.25;;;;;10.06;100.00;100858.22;5020665;28;45398;-73
2023/02/25 01:36:27;;;;;;;;;3.25;3.00;;;;;10.09;100.00;100856.50;5037402;28;45567;-73
2023/02/25 01:38:52;;;;;;;;;3.25;3.00;;;;;10.10;100.00;100855.63;5022175;28;45513;-74
2023/02/25 01:41:18;;;;;;;;;6.25;3.00;;;;;10.11;100.00;100848.59;5019456;28;45613;-75
2023/02/25 01:44:07;;;;;;;;;3.25;2.50;;;;;10.15;100.00;100850.44;5018207;28;45455;-73
2023/02/25 01:46:33;;;;;;;;;6.75;6.25;;;;;10.16;100.00;100846.91;5037382;28;45428;-73
2023/02/25 01:48:59;;;;;;;;;9.00;7.00;;;;;10.16;100.00;100849.56;5036757;28;45457;-76
2023/02/25 01:51:27;;;;;;;;;7.00;6.00;;;;;10.18;100.00;100858.41;5016040;28;46512;-73
2023/02/25 01:53:54;;;;;;;;;4.00;3.00;;;;;10.20;100.00;100854.00;5021220;28;45524;-73
2023/02/25 01:56:22;;;;;;;;;6.25;4.00;;;;;10.17;100.00;100856.59;5021285;28;45750;-75
2023/02/25 01:58:48;;;;;;;;;9.00;5.00;;;;;10.14;100.00;100861.84;5018422;28;45537;-73
2023/02/25 02:01:14;;;;;;;;;6.50;5.00;;;;;10.10;100.00;100854.75;5019832;28;46759;-73
2023/02/25 02:03:40;;;;;;;;;8.75;4.50;;;;;10.02;100.00;100848.50;5025246;28;45500;-73
2023/02/25 02:06:06;;;;;;;;;3.00;3.00;;;;;10.01;100.00;100857.25;5036133;28;48412;-74
2023/02/25 02:08:32;;;;;;;;;6.33;4.00;;;;;9.94;100.00;100851.03;5036719;28;45631;-73
2023/02/25 02:10:58;;;;;;;;;4.67;3.33;;;;;9.89;100.00;100852.72;5035004;28;45819;-74
2023/02/25 02:13:23;;;;;;;;;7.00;2.67;;;;;9.87;100.00;100851.81;5036663;28;45278;-75
2023/02/25 02:16:01;;;;;;;;;4.00;2.00;;;;;9.88;100.00;100865.00;5020517;28;54329;-73
2023/02/25 02:18:32;;;;;;;;;2.67;2.00;;;;;9.86;100.00;100856.19;5033576;28;45295;-73
2023/02/25 02:21:16;;;;;;;;;6.50;3.75;;;;;9.86;100.00;100852.69;5028103;28;46131;-73
2023/02/25 02:24:00;;;;;;;;;7.00;2.67;;;;;9.85;100.00;100850.88;5028471;28;45444;-74
2023/02/25 02:26:26;;;;;;;;;2.50;2.50;;;;;9.81;100.00;100847.34;5030371;28;45329;-74
2023/02/25 02:29:10;;;;;;;;;1.75;1.75;;;;;9.76;100.00;100853.41;5021208;28;45546;-74
2023/02/25 02:31:45;;;;;;;;;2.67;2.00;;;;;9.66;100.00;100849.75;5036731;28;46533;-74
2023/02/25 02:34:15;;;;;;;;;2.25;2.25;;;;;9.63;100.00;100850.56;5031700;28;45516;-76
2023/02/25 02:36:52;;;;;;;;;5.00;3.00;;;;;9.59;100.00;100842.63;5030392;28;45496;-73
2023/02/25 02:39:22;;;;;;;;;6.50;3.75;;;;;9.59;100.00;100851.41;5033687;28;45313;-74
2023/02/25 02:42:06;;;;;;;;;6.50;2.25;;;;;9.56;100.00;100850.47;4994261;28;47761;-73
2023/02/25 02:44:41;;;;;;;;;4.00;3.00;;;;;9.48;100.00;100836.28;5025590;28;45296;-73
2023/02/25 02:47:13;;;;;;;;;2.50;2.25;;;;;9.43;100.00;100846.78;5021461;28;45436;-74
2023/02/25 02:49:43;;;;;;;;;3.00;3.00;;;;;9.35;100.00;100849.25;5011400;28;45687;-75
2023/02/25 02:52:14;;;;;;;;;4.00;2.25;;;;;9.29;100.00;100849.16;5009686;28;47523;-73
2023/02/25 02:54:43;;;;;;;;;3.00;3.00;;;;;9.22;100.00;100849.94;5018279;28;45528;-74
2023/02/25 02:57:09;;;;;;;;;6.00;3.75;;;;;9.22;100.00;100856.97;5034397;28;45465;-75
2023/02/25 02:59:44;;;;;;;;;2.25;2.25;;;;;9.17;100.00;100846.34;5016922;28;45579;-73
2023/02/25 03:02:34;;;;;;;;;1.50;1.25;;;;;9.22;100.00;100854.31;5017156;28;46625;-74
2023/02/25 03:05:03;;;;;;;;;5.00;3.00;;;;;9.21;100.00;100847.25;5034575;28;45454;-74
2023/02/25 03:07:31;;;;;;;;;6.50;3.25;;;;;9.23;100.00;100853.47;5020556;28;45373;-74
2023/02/25 03:10:02;;;;;;;;;3.25;3.25;;;;;9.21;100.00;100856.03;5040045;28;45468;-73
2023/02/25 03:12:29;;;;;;;;;3.50;3.50;;;;;9.19;100.00;100857.78;5017042;28;46263;-75
2023/02/25 03:14:55;;;;;;;;;6.25;3.50;;;;;9.20;100.00;100856.91;5019053;28;45551;-73
2023/02/25 03:17:26;;;;;;;;;5.50;3.00;;;;;9.21;100.00;100853.41;5036323;28;45484;-74
2023/02/25 03:20:20;;;;;;;;;6.50;3.50;;;;;9.25;100.00;100854.34;5018176;28;45402;-73
2023/02/25 03:22:48;;;;;;;;;7.25;3.75;;;;;9.23;100.00;100849.06;5010333;28;46606;-73
2023/02/25 03:25:24;;;;;;;;;6.00;3.75;;;;;9.25;100.00;100849.97;5016091;28;45541;-73
2023/02/25 03:27:52;;;;;;;;;3.25;3.00;;;;;9.26;100.00;100859.63;5030930;28;45469;-73
2023/02/25 03:30:39;;;;;;;;;2.25;2.25;;;;;9.25;100.00;100857.88;5023844;28;45396;-73
2023/02/25 03:33:13;;;;;;;;;3.75;3.00;;;;;9.25;100.00;100865.78;5017017;28;46606;-74
2023/02/25 03:35:39;;;;;;;;;6.75;4.25;;;;;9.20;100.00;100856.91;5017213;28;45427;-75
2023/02/25 03:38:11;;;;;;;;;6.00;2.00;;;;;9.18;100.00;100859.53;5029389;28;45504;-74
2023/02/25 03:40:37;;;;;;;;;7.00;2.00;;;;;9.14;100.00;100855.06;5015253;28;45311;-74
2023/02/25 03:43:08;;;;;;;;;2.00;2.00;;;;;9.14;100.00;100869.97;5010767;28;45463;-73
2023/02/25 03:45:39;;;;;;;;;2.75;2.75;;;;;9.09;100.00;100862.00;5008530;28;45481;-75
2023/02/25 03:48:05;;;;;;;;;2.75;2.50;;;;;9.06;100.00;100863.72;5011189;28;45334;-74
2023/02/25 03:50:34;;;;;;;;;4.75;3.00;;;;;9.06;100.00;100869.84;5017544;28;45323;-75
2023/02/25 03:53:00;;;;;;;;;4.00;3.00;;;;;9.07;100.00;100868.09;5016410;28;45605;-75
2023/02/25 03:55:28;;;;;;;;;7.00;3.25;;;;;9.08;100.00;100873.41;5019688;28;45366;-75
2023/02/25 03:57:53;;;;;;;;;8.25;3.25;;;;;9.10;100.00;100870.78;5023216;28;45519;-74
2023/02/25 04:00:24;;;;;;;;;4.00;2.50;;;;;9.11;100.00;100873.47;5039391;28;45354;-74
2023/02/25 04:02:50;;;;;;;;;8.00;3.00;;;;;9.13;100.00;100873.47;5035082;28;46447;-74
2023/02/25 04:05:17;;;;;;;;;5.50;2.75;;;;;9.15;100.00;100877.00;5017549;28;45599;-74
2023/02/25 04:07:43;;;;;;;;;6.00;2.00;;;;;9.16;100.00;100871.78;5020589;28;45324;-74
2023/02/25 04:10:10;;;;;;;;;3.75;2.25;;;;;9.16;100.00;100873.50;5036321;28;45340;-74
2023/02/25 04:12:36;;;;;;;;;1.25;1.25;;;;;9.17;100.00;100865.66;5016485;28;46664;-74
2023/02/25 04:15:01;;;;;;;;;1.50;1.00;;;;;9.22;100.00;100870.13;5020608;28;45208;-75
2023/02/25 04:17:27;;;;;;;;;6.00;3.00;;;;;9.26;100.00;100871.94;5020267;28;45367;-74
2023/02/25 04:19:52;;;;;;;;;3.00;1.00;;;;;9.29;100.00;100872.88;5038048;28;49948;-74
2023/02/25 04:22:18;;;;;;;;;3.75;2.00;;;;;9.31;100.00;100883.44;5038055;28;52418;-75
2023/02/25 04:24:43;;;;;;;;;1.50;1.50;;;;;9.29;100.00;100878.16;5038220;28;53160;-75
2023/02/25 04:27:08;;;;;;;;;3.00;1.75;;;;;9.32;100.00;100882.56;5040828;28;51374;-75
2023/02/25 04:29:34;;;;;;;;;1.25;1.25;;;;;9.35;100.00;100896.69;5046979;28;45286;-74
2023/02/25 04:31:59;;;;;;;;;3.00;1.50;;;;;9.34;100.00;100887.03;5026697;28;47463;-74
2023/02/25 04:34:24;;;;;;;;;2.50;1.00;;;;;9.35;100.00;100898.44;5048049;28;46012;-74
2023/02/25 04:36:50;;;;;;;;;1.50;1.50;;;;;9.35;100.00;100899.31;5039704;28;53641;-75
2023/02/25 04:39:17;;;;;;;;;3.50;3.50;;;;;9.36;100.00;100905.47;5037886;28;45511;-74
2023/02/25 04:41:43;;;;;;;;;2.00;1.00;;;;;9.34;100.00;100897.56;5003706;28;47728;-74
2023/02/25 04:44:08;;;;;;;;;1.25;1.00;;;;;9.37;100.00;100905.50;5023256;28;45497;-74
2023/02/25 04:46:39;;;;;;;;;5.50;2.25;;;;;9.39;100.00;100905.53;5039395;28;45486;-75
2023/02/25 04:49:06;;;;;;;;;7.00;1.00;;;;;9.37;100.00;100907.25;5037643;28;45576;-75
2023/02/25 04:51:32;;;;;;;;;4.50;1.00;;;;;9.39;100.00;100900.28;5004325;28;48104;-74
2023/02/25 04:53:57;;;;;;;;;1.00;1.00;;;;;9.37;100.00;100905.50;5027104;28;45442;-75
2023/02/25 04:56:23;;;;;;;;;1.00;1.00;;;;;9.33;100.00;100893.16;5039692;28;45220;-74
2023/02/25 04:58:48;;;;;;;;;4.00;1.00;;;;;9.29;100.00;100899.22;5038158;28;54925;-74
2023/02/25 05:01:14;;;;;;;;;2.50;1.50;;;;;9.22;100.00;100902.63;5021602;28;45469;-74
2023/02/25 05:03:39;;;;;;;;;2.75;1.75;;;;;9.20;100.00;100904.31;5024172;28;45358;-74
2023/02/25 05:06:05;;;;;;;;;2.00;0.00;;;;;9.18;100.00;100898.16;5022585;28;45327;-72
2023/02/25 05:08:31;;;;;;;;;0.75;0.75;;;;;9.16;100.00;100905.13;5039687;28;45586;-74
2023/02/25 05:10:57;;;;;;;;;1.00;1.00;;;;;9.16;100.00;100910.41;5038690;28;46503;-73
2023/02/25 05:13:23;;;;;;;;;1.00;1.00;;;;;9.13;100.00;100898.06;5019086;28;52090;-72
2023/02/25 05:15:48;;;;;;;;;0.67;0.67;;;;;9.12;100.00;100913.84;5040639;28;45602;-74
2023/02/25 05:18:14;;;;;;;;;1.00;1.00;;;;;9.11;100.00;100904.19;5037696;28;45448;-72
2023/02/25 05:20:41;;;;;;;;;2.25;0.00;;;;;9.07;100.00;100912.88;5037243;28;46759;-73
2023/02/25 05:23:07;;;;;;;;;2.75;1.00;;;;;8.98;100.00;100897.78;5020332;28;45494;-75
2023/02/25 05:25:32;;;;;;;;;1.00;1.00;;;;;8.92;100.00;100902.94;5037237;28;45339;-73
2023/02/25 05:27:58;;;;;;;;;2.50;1.00;;;;;8.80;100.00;100894.81;5022910;28;45330;-73
2023/02/25 05:30:23;;;;;;;;;2.75;1.00;;;;;8.76;100.00;100899.13;5037006;28;45429;-74
2023/02/25 05:32:49;;;;;;;;;2.50;1.00;;;;;8.72;100.00;100905.19;5036850;28;45507;-73
2023/02/25 05:35:14;;;;;;;;;3.00;1.75;;;;;8.66;100.00;100903.31;5037030;28;53727;-73
2023/02/25 05:37:39;;;;;;;;;1.25;1.25;;;;;8.64;100.00;100909.44;5026725;28;45531;-72
2023/02/25 05:40:08;;;;;;;;;2.00;0.75;;;;;8.63;100.00;100913.81;5034353;28;57052;-73
2023/02/25 05:42:33;;;;;;;;;3.25;1.00;;;;;8.61;100.00;100909.34;5027541;28;45580;-73
2023/02/25 05:44:58;;;;;;;;;4.50;1.50;;;;;8.57;100.00;100910.16;5031389;28;53255;-72
2023/02/25 05:47:24;;;;;;;;;1.75;0.50;;;;;8.54;100.00;100904.84;5036253;28;51106;-73
2023/02/25 05:49:49;;;;;;;;;0.50;0.00;;;;;8.52;100.00;100910.06;5037142;28;55559;-74
2023/02/25 05:52:14;;;;;;;;;1.00;1.00;;;;;8.48;100.00;100904.72;5037015;28;59123;-72
2023/02/25 05:54:40;;;;;;;;;2.00;0.25;;;;;8.43;100.00;100901.09;5036759;28;51874;-73
2023/02/25 05:57:05;;;;;;;;;1.25;1.25;;;;;8.42;100.00;100900.22;5021978;28;45329;-73
2023/02/25 05:59:31;;;;;;;;;1.25;0.50;;;;;8.36;100.00;100903.59;5036563;28;62502;-75
2023/02/25 06:01:56;;;;;;;;;3.75;1.00;;;;;8.34;100.00;100900.00;5023231;28;45432;-73
2023/02/25 06:04:22;;;;;;;;;3.50;1.00;;;;;8.28;100.00;100897.25;5037316;28;55243;-73
2023/02/25 06:06:50;;;;;;;;;1.75;1.50;;;;;8.28;100.00;100904.25;5036750;28;45405;-74
2023/02/25 06:09:19;;;;;;;;;1.00;1.00;;;;;8.25;100.00;100904.16;5030022;28;46548;-73
2023/02/25 06:14:20;;;;;;;;;4.00;1.00;;;;;8.18;100.00;100905.78;5149337;22;45560;-75
2023/02/25 06:16:45;;;;;;;;;0.00;0.00;;;;;8.15;100.00;100911.00;5015556;28;45742;-73
2023/02/25 06:19:11;;;;;;;;;1.25;1.00;;;;;8.12;100.00;100908.28;5031397;28;45792;-74
2023/02/25 06:21:37;;;;;;;;;2.00;0.00;;;;;8.05;100.00;100915.16;5003773;28;45354;-73
2023/02/25 06:24:03;;;;;;;;;4.00;2.00;;;;;8.03;100.00;100910.72;5038770;28;45426;-75
2023/02/25 06:26:28;;;;;;;;;6.25;1.75;;;;;7.96;100.00;100914.06;5023452;28;45566;-74
2023/02/25 06:28:54;;;;;;;;;1.00;1.00;;;;;7.94;100.00;100924.56;5036823;28;46253;-74
2023/02/25 06:31:23;;;;;;;;;1.50;0.25;;;;;7.90;100.00;100924.44;5020054;28;45354;-74
2023/02/25 06:33:57;;;;;;;;;1.00;1.00;;;;;7.86;100.00;100919.09;5002552;28;45449;-72
2023/02/25 06:36:23;;;;;;;;;1.75;1.00;;;;;7.88;100.00;100930.56;5036703;28;45440;-72
2023/02/25 06:38:48;;;;;;;;;1.50;0.75;;;;;7.83;100.00;100919.06;5026116;28;46438;-73
2023/02/25 06:41:16;;;;;;;;;1.00;1.00;;;;;7.82;100.00;100932.13;5031651;28;45463;-73
2023/02/25 06:43:42;;;;;;;;;0.75;0.75;;;;;7.80;100.00;100918.06;5030196;28;45436;-73
2023/02/25 06:46:10;;;;;;;;;2.00;0.75;;;;;7.79;100.00;100925.06;5033063;28;45544;-73
2023/02/25 06:48:36;;;;;;;;;4.25;0.75;;;;;7.78;100.00;100927.69;5018763;28;47822;-74
2023/02/25 06:51:03;;;;;;;;;1.00;1.00;;;;;7.77;100.00;100929.38;5032407;28;53789;-74
2023/02/25 06:53:29;;;;;;;;;0.00;0.00;;;;;7.76;100.00;100938.13;5003238;28;45469;-75
2023/02/25 06:55:57;;;;;;;;;5.00;1.00;;;;;7.76;100.00;100938.13;5036694;28;51350;-73
2023/02/25 06:58:22;;;;;;;;;2.75;1.00;;;;;7.72;100.00;100933.66;5035579;28;45827;-71
2023/02/25 07:00:48;;;;;;;;;1.50;1.00;;;;;7.79;100.00;100946.09;5042152;28;45407;-72
2023/02/25 07:03:14;;;;;;;;;1.00;0.25;;;;;7.81;100.00;100947.03;5035666;28;53420;-73
2023/02/25 07:05:39;;;;;;;;;4.00;1.50;;;;;7.86;100.00;100945.38;5022201;28;45632;-73
2023/02/25 07:08:05;;;;;;;;;0.25;0.25;;;;;7.90;100.00;100949.00;5021784;28;46587;-74
2023/02/25 07:10:31;;;;;;;;;1.00;1.00;;;;;7.94;100.00;100952.59;5040586;28;45439;-73
2023/02/25 07:12:56;;;;;;;;;2.00;1.00;;;;;8.00;100.00;100953.63;5017910;28;45401;-72
2023/02/25 07:15:21;;;;;;;;;3.50;1.00;;;;;8.04;100.00;100963.34;5036525;28;51852;-74
2023/02/25 07:17:47;;;;;;;;;3.00;1.25;;;;;8.07;100.00;100955.53;5035422;28;61550;-73
2023/02/25 07:20:13;;;;;;;;;0.25;0.25;;;;;8.07;100.00;100952.00;5017922;28;45393;-73
2023/02/25 07:22:38;;;;;;;;;2.00;0.00;;;;;8.11;100.00;100953.88;5017924;28;45307;-73
2023/02/25 07:25:04;;;;;;;;;2.00;0.50;;;;;8.16;100.00;100962.75;5034471;28;45818;-75
2023/02/25 07:27:29;;;;;;;;;7.00;1.00;;;;;8.16;100.00;100952.22;5035232;28;45878;-73
2023/02/25 07:29:55;;;;;;;;;4.25;1.00;;;;;8.22;100.00;100962.88;5035438;28;45440;-75
2023/02/25 07:32:23;;;;;;;;;2.50;1.25;;;;;8.20;100.00;100954.03;5029890;28;45588;-73
2023/02/25 07:34:48;;;;;;;;;5.00;3.00;;;;;8.28;100.00;100960.38;5035500;28;45473;-73
2023/02/25 07:37:14;;;;;;;;;1.00;1.00;;;;;8.27;100.00;100969.13;5034300;28;54547;-73
2023/02/25 07:39:39;;;;;;;;;1.00;1.00;;;;;8.26;100.00;100966.47;5034869;28;56927;-72
2023/02/25 07:42:04;;;;;;;;;0.75;0.75;;;;;8.22;100.00;100962.88;5033496;28;45352;-74
2023/02/25 07:44:30;;;;;;;;;1.50;1.50;;;;;8.22;100.00;100969.88;5034124;28;52577;-74
2023/02/25 07:46:55;;;;;;;;;0.50;0.50;;;;;8.20;100.00;100968.94;5036045;28;46694;-73
2023/02/25 07:49:20;;;;;;;;;2.00;1.00;;;;;8.25;100.00;100973.44;5042895;28;57745;-73
2023/02/25 07:51:46;;;;;;;;;3.00;1.00;;;;;8.28;100.00;100965.63;5039705;28;53831;-74
2023/02/25 07:54:11;;;;;;;;;2.25;1.50;;;;;8.29;100.00;100971.78;5036241;28;45383;-73
2023/02/25 07:56:36;;;;;;;;;1.25;1.25;;;;;8.29;100.00;100966.53;5036669;28;45847;-73
2023/02/25 07:59:02;;;;;;;;;0.75;0.75;;;;;8.28;100.00;100984.06;5039273;28;53590;-74
2023/02/25 08:01:30;;;;;;;;;3.75;2.00;;;;;8.29;100.00;100982.31;5056238;22;53240;-73
2023/02/25 08:03:58;;;;;;;;;0.50;0.00;;;;;8.26;100.00;100977.88;5027070;28;45511;-73
2023/02/25 08:06:23;;;;;;;;;0.50;0.00;;;;;8.25;100.00;100991.88;5016919;28;45701;-74
2023/02/25 08:08:54;;;;;;;;;0.50;0.00;;;;;8.26;100.00;100991.03;5035482;28;45463;-73
2023/02/25 08:11:20;;;;;;;;;2.00;1.00;;;;;8.24;100.00;100984.84;5039051;28;45483;-72
2023/02/25 08:13:46;;;;;;;;;0.00;0.00;;;;;8.23;100.00;100980.44;5028779;28;45287;-73
2023/02/25 08:16:13;;;;;;;;;2.00;1.00;;;;;8.26;100.00;100988.41;5017461;28;48353;-73
2023/02/25 08:18:42;;;;;;;;;2.00;0.75;;;;;8.29;100.00;100988.47;5035844;28;45310;-73
2023/02/25 08:21:09;;;;;;;;;1.50;1.00;;;;;8.30;100.00;100990.22;5015698;28;45488;-74
2023/02/25 08:23:34;;;;;;;;;0.50;0.50;;;;;8.33;100.00;100992.06;5005679;28;45424;-73
2023/02/25 08:25:59;;;;;;;;;2.00;1.00;;;;;8.33;100.00;100995.56;4999510;28;63361;-73
2023/02/25 08:28:30;;;;;;;;;0.00;0.00;;;;;8.36;100.00;100990.44;4999193;28;45336;-73
2023/02/25 08:30:56;;;;;;;;;1.25;0.00;;;;;8.39;100.00;100989.59;5035674;28;45460;-73
2023/02/25 08:33:22;;;;;;;;;0.00;0.00;;;;;8.45;100.00;100995.00;5042432;22;45573;-73
2023/02/25 08:35:49;;;;;;;;;2.00;1.00;;;;;8.47;100.00;100993.28;5057755;22;45810;-73
2023/02/25 08:38:14;;;;;;;;;1.00;0.00;;;;;8.49;100.00;100995.94;5019582;28;45631;-75
2023/02/25 08:40:40;;;;;;;;;4.00;1.00;;;;;8.51;100.00;100995.13;5036323;28;55875;-73
2023/02/25 08:43:06;;;;;;;;;2.50;1.00;;;;;8.54;100.00;100999.56;5021172;28;45698;-74
2023/02/25 08:45:32;;;;;;;;;2.75;0.25;;;;;8.54;100.00;100994.31;5020991;28;46630;-74
2023/02/25 08:47:57;;;;;;;;;0.00;0.00;;;;;8.59;100.00;100988.28;5039186;28;60081;-73
2023/02/25 08:50:23;;;;;;;;;1.00;1.00;;;;;8.61;100.00;100990.94;5034062;28;51757;-74
2023/02/25 08:52:49;;;;;;;;;0.50;0.00;;;;;8.68;100.00;100995.47;5037841;28;55875;-74
2023/02/25 08:55:15;;;;;;;;;0.00;0.00;;;;;8.74;100.00;100987.72;5026969;28;45621;-74
2023/02/25 08:57:41;;;;;;;;;4.00;1.00;;;;;8.82;100.00;100991.41;5029326;28;45479;-74
2023/02/25 09:00:08;;;;;;;;;3.75;0.00;;;;;8.91;100.00;100996.88;5033630;28;45653;-75
2023/02/25 09:02:34;;;;;;;;;0.50;0.50;;;;;9.00;100.00;100988.28;5028903;28;45365;-73
2023/02/25 09:05:00;;;;;;;;;3.00;0.00;;;;;9.13;100.00;100978.84;5039271;28;45522;-75
2023/02/25 09:07:25;;;;;;;;;1.00;0.00;;;;;9.30;100.00;100985.31;5030779;28;45547;-73
2023/02/25 09:09:51;;;;;;;;;0.00;0.00;;;;;9.45;100.00;100982.97;5041734;28;45381;-75
2023/02/25 09:12:16;;;;;;;;;3.00;0.00;;;;;9.58;100.00;100981.41;5043885;28;45455;-73
2023/02/25 09:14:42;;;;;;;;;0.00;0.00;;;;;9.72;100.00;100981.66;5014693;28;58955;-74
2023/02/25 09:17:09;;;;;;;;;1.25;1.00;;;;;9.72;100.00;100992.22;5029116;28;45632;-74
2023/02/25 09:19:37;;;;;;;;;2.00;0.00;;;;;9.65;100.00;100982.44;5021959;28;45443;-74
2023/02/25 09:22:03;;;;;;;;;1.00;1.00;;;;;9.63;100.00;100985.03;5015371;28;45459;-74
2023/02/25 09:24:29;;;;;;;;;3.50;0.00;;;;;9.62;100.00;100983.25;5037863;28;46660;-74
2023/02/25 09:26:54;;;;;;;;;1.75;0.00;;;;;9.61;100.00;100985.88;5022929;28;45435;-75
2023/02/25 09:29:20;;;;;;;;;0.33;0.33;;;;;9.58;100.00;100985.81;5038265;28;45487;-74
2023/02/25 09:31:45;;;;;;;;;1.00;0.25;;;;;9.58;100.00;100985.81;5042264;28;50667;-74
2023/02/25 09:34:14;;;;;;;;;1.50;1.00;;;;;9.62;100.00;100990.28;5022575;28;48185;-75
2023/02/25 09:36:39;;;;;;;;;0.75;0.75;;;;;9.63;100.00;100990.28;5040900;28;45500;-74
2023/02/25 09:39:08;;;;;;;;;0.50;0.50;;;;;9.63;100.00;100979.75;5019921;28;45518;-74
2023/02/25 09:41:51;;;;;;;;;0.00;0.00;;;;;9.69;100.00;100992.16;4990609;28;45469;-74
2023/02/25 09:44:23;;;;;;;;;1.75;0.00;;;;;9.71;100.00;100985.16;5020274;28;45910;-74
2023/02/25 09:47:04;;;;;;;;;2.00;1.00;;;;;9.71;100.00;100986.06;5036326;28;45559;-73
2023/02/25 09:49:36;;;;;;;;;1.75;0.75;;;;;9.71;100.00;100983.41;4994443;28;45284;-74
2023/02/25 09:52:11;;;;;;;;;4.00;1.75;;;;;9.69;100.00;100982.50;5034924;28;45548;-74
2023/02/25 09:54:43;;;;;;;;;0.75;0.00;;;;;9.72;100.00;100979.03;5027987;28;46062;-74
2023/02/25 09:57:11;;;;;;;;;1.00;0.00;;;;;9.75;100.00;100979.09;4993683;28;46122;-75
2023/02/25 09:59:37;;;;;;;;;2.75;1.00;;;;;9.76;100.00;100980.88;5013067;28;45520;-75
2023/02/25 10:02:35;;;;;;;;;1.50;1.00;;;;;9.77;100.00;100972.09;5025432;28;45495;-74
2023/02/25 10:05:14;;;;;;;;;2.25;2.00;;;;;9.80;100.00;100987.06;5025078;28;46979;-75
2023/02/25 10:08:12;;;;;;;;;2.00;0.75;;;;;9.86;100.00;100982.78;5033278;28;45522;-74
2023/02/25 10:10:54;;;;;;;;;1.00;0.00;;;;;10.05;100.00;100983.06;5034932;28;45469;-73
2023/02/25 10:13:22;;;;;;;;;3.00;0.75;;;;;10.19;100.00;100981.53;5040558;28;45643;-75
2023/02/25 10:16:00;;;;;;;;;1.33;1.00;;;;;10.36;100.00;100980.06;5020321;28;45683;-74
2023/02/25 10:18:51;;;;;;;;;4.00;0.67;;;;;10.59;100.00;100984.75;5042854;28;45536;-75
2023/02/25 10:21:22;;;;;;;;;2.00;1.00;;;;;10.72;100.00;100973.50;5035917;28;45605;-74
2023/02/25 10:24:20;;;;;;;;;1.00;1.00;;;;;10.87;100.00;100984.25;5041444;28;45422;-74
2023/02/25 10:26:49;;;;;;;;;1.00;1.00;;;;;10.92;100.00;100972.00;5024746;28;46942;-72
2023/02/25 10:29:27;;;;;;;;;7.75;4.75;;;;;10.93;100.00;100972.88;5019662;28;45544;-74
2023/02/25 10:31:58;;;;;;;;;3.00;1.00;;;;;10.88;100.00;100970.19;5021428;28;45532;-75
2023/02/25 10:34:27;;;;;;;;;2.00;2.00;;;;;10.83;100.00;100976.28;5032953;28;46374;-75
2023/02/25 10:36:55;;;;;;;;;2.00;1.00;;;;;10.81;100.00;100981.53;5032732;28;47341;-74
2023/02/25 10:39:21;;;;;;;;;1.00;1.00;;;;;10.78;100.00;100978.84;5015849;28;45591;-75
2023/02/25 10:41:48;;;;;;;;;3.00;1.00;;;;;10.77;100.00;100977.09;5031085;28;45514;-76
2023/02/25 10:44:13;;;;;;;;;9.33;2.00;;;;;10.81;100.00;100972.72;5040432;28;45456;-73
2023/02/25 10:47:01;;;;;;;;;3.67;2.00;;;;;10.88;100.00;100980.75;5033502;28;45675;-73
2023/02/25 10:49:29;;;;;;;;;72.25;50.50;;;;;11.00;100.00;100986.16;5006306;28;45591;-74
2023/02/25 10:52:04;;;;;;;;;4.00;2.00;;;;;11.18;100.00;100974.91;4998029;28;45853;-72
2023/02/25 10:54:32;;;;;;;;;5.00;3.00;;;;;11.34;100.00;100973.31;5008949;28;46577;-74
2023/02/25 10:57:07;;;;;;;;;8.67;3.00;;;;;11.47;100.00;100977.88;5030518;28;46156;-73
2023/02/25 10:59:38;;;;;;;;;1.00;1.00;;;;;11.55;100.00;100968.22;5011626;28;45521;-74
2023/02/25 11:02:20;;;;;;;;;2.67;1.00;;;;;11.49;99.47;100967.28;5026546;28;45558;-73
2023/02/25 11:04:47;;;;;;;;;2.67;1.00;;;;;11.41;97.73;100976.94;5018296;28;45441;-74
2023/02/25 11:07:42;;;;;;;;;3.00;2.00;;;;;11.32;98.65;100964.50;5051058;28;46428;-74
2023/02/25 11:10:19;;;;;;;;;2.00;2.00;;;;;11.20;98.27;100957.31;4991545;28;46152;-73
2023/02/25 11:12:51;;;;;;;;;4.00;2.00;;;;;11.19;98.81;100960.84;5025967;28;45373;-73
2023/02/25 11:15:36;;;;;;;;;3.50;3.50;;;;;11.29;99.59;100953.88;5018099;28;47161;-73
2023/02/25 11:18:28;;;;;;;;;6.67;2.00;;;;;11.46;98.56;100954.94;5029463;28;47704;-73
2023/02/25 11:20:59;;;;;;;;;3.67;2.00;;;;;11.61;96.37;100953.28;5021965;28;45459;-72
2023/02/25 11:23:31;;;;;;;;;4.33;2.00;;;;;11.59;96.57;100939.19;5049744;28;45401;-74
2023/02/25 11:25:57;;;;;;;;;2.33;2.00;;;;;11.62;96.30;100949.78;5026342;28;45482;-73
2023/02/25 11:28:39;;;;;;;;;5.00;2.00;;;;;11.52;95.42;100946.19;5022736;28;46372;-74
2023/02/25 11:31:22;;;;;;;;;1.00;1.00;;;;;11.43;94.90;100957.53;5012759;28;45694;-73
2023/02/25 11:33:58;;;;;;;;;4.00;1.00;;;;;11.40;94.05;100944.31;5017622;28;45393;-74